Gibbs, Arkansas
Current Conditions -  °F | °C
As of 2:09 AM on Saturday 25 Oct 2014 (Local Time) from KMWT Reporting Station
Haze Haze  
Wind Chill: 56°   Ceiling: Unl
Heat Index: 56°   Visibility: 0.75mi
Dew Point: 55°   Wind: 0mph
Humidity: 97%   Direction: NA
Pressure: 30.09"   Gusts: NA
Location:  34.668°N, 93.6648°W
Report Text: KMWT 250709Z AUTO 00000KT 3/4SM BR CLR 13/13 A3009 RMK AO2 T01330128
Loading
Personal Weather Stations






























Interactive Weather Map
Tropical Storm Tracking
New forecast layout! Learn more

10-Day Weather Forecast

Advertisements
Track Severe Weather on mobile